createdAt,value
2017-11-10T00:00:58.516Z,10.60
2017-11-10T00:03:27.500Z,10.60
2017-11-10T00:05:54.968Z,10.60
2017-11-10T00:08:23.215Z,10.50
2017-11-10T00:10:50.689Z,10.50
2017-11-10T00:13:18.169Z,10.50
2017-11-10T00:15:45.720Z,10.50
2017-11-10T00:18:13.280Z,10.50
2017-11-10T00:20:40.748Z,10.50
2017-11-10T00:23:09.021Z,10.60
2017-11-10T00:25:37.249Z,10.60
2017-11-10T00:28:05.593Z,10.50
2017-11-10T00:30:33.112Z,10.50
2017-11-10T00:33:00.885Z,10.50
2017-11-10T00:35:28.433Z,10.50
2017-11-10T00:37:55.903Z,10.50
2017-11-10T00:40:24.181Z,10.50
2017-11-10T00:42:52.449Z,10.50
2017-11-10T00:45:19.915Z,10.50
2017-11-10T00:47:48.157Z,10.50
2017-11-10T00:50:15.649Z,10.50
2017-11-10T00:52:43.886Z,10.50
2017-11-10T00:55:11.369Z,10.40
2017-11-10T00:57:38.836Z,10.40
2017-11-10T01:00:07.070Z,10.40
2017-11-10T01:02:34.591Z,10.40
2017-11-10T01:05:02.931Z,10.40
2017-11-10T01:07:30.482Z,10.40
2017-11-10T01:09:59.832Z,10.40
2017-11-10T01:12:27.356Z,10.40
2017-11-10T01:14:54.916Z,10.40
2017-11-10T01:17:22.465Z,10.40
2017-11-10T01:19:50.026Z,10.40
2017-11-10T01:22:18.143Z,10.30
2017-11-10T01:24:45.686Z,10.40
2017-11-10T01:27:13.157Z,10.40
2017-11-10T01:29:40.614Z,10.40
2017-11-10T01:32:08.105Z,10.40
2017-11-10T01:34:35.580Z,10.30
2017-11-10T01:37:03.062Z,10.30
2017-11-10T01:39:31.288Z,10.30
2017-11-10T01:41:58.768Z,10.30
2017-11-10T01:44:26.237Z,10.30
2017-11-10T01:46:54.468Z,10.30
2017-11-10T01:49:27.504Z,10.30
2017-11-10T01:51:55.737Z,10.30
2017-11-10T01:54:23.204Z,10.20
2017-11-10T01:56:50.677Z,10.20
2017-11-10T01:59:18.152Z,10.20
2017-11-10T02:01:46.408Z,10.20
2017-11-10T02:04:13.872Z,10.20
2017-11-10T02:06:41.370Z,10.20
2017-11-10T02:09:08.881Z,10.20
2017-11-10T02:11:36.340Z,10.20
2017-11-10T02:14:03.809Z,10.20
2017-11-10T02:16:32.053Z,10.20
2017-11-10T02:18:59.530Z,10.10
2017-11-10T02:21:27.903Z,10.10
2017-11-10T02:23:55.457Z,10.10
2017-11-10T02:26:22.915Z,10.10
2017-11-10T02:28:50.376Z,10.20
2017-11-10T02:31:18.752Z,10.20
2017-11-10T02:33:46.989Z,10.20
2017-11-10T02:36:14.454Z,10.20
2017-11-10T02:38:41.957Z,10.20
2017-11-10T02:41:09.418Z,10.20
2017-11-10T02:43:37.673Z,10.20
2017-11-10T02:46:05.233Z,10.20
2017-11-10T02:48:32.788Z,10.20
2017-11-10T02:51:00.276Z,10.20
2017-11-10T02:53:28.512Z,10.20
2017-11-10T02:55:55.992Z,10.20
2017-11-10T02:58:23.522Z,10.20
2017-11-10T03:00:50.997Z,10.20
2017-11-10T03:03:18.559Z,10.20
2017-11-10T03:05:46.034Z,10.30
2017-11-10T03:08:14.265Z,10.20
2017-11-10T03:10:41.799Z,10.20
2017-11-10T03:13:09.288Z,10.20
2017-11-10T03:15:36.769Z,10.20
2017-11-10T03:18:05.009Z,10.20
2017-11-10T03:20:33.189Z,10.20
2017-11-10T03:23:00.664Z,10.20
2017-11-10T03:25:28.181Z,10.20
2017-11-10T03:27:55.686Z,10.20
2017-11-10T03:30:23.248Z,10.20
2017-11-10T03:32:50.720Z,10.20
2017-11-10T03:35:18.957Z,10.10
2017-11-10T03:37:46.429Z,10.10
2017-11-10T03:40:13.989Z,10.10
2017-11-10T03:42:41.455Z,10.10
2017-11-10T03:45:09.705Z,10.10
2017-11-10T03:47:37.186Z,10.10
2017-11-10T03:50:04.741Z,10.00
2017-11-10T03:52:32.204Z,10.00
2017-11-10T03:55:00.433Z,10.00
2017-11-10T03:57:27.939Z,10.00
2017-11-10T03:59:56.458Z,10.00
2017-11-10T04:02:23.964Z,10.00
2017-11-10T04:04:51.459Z,10.00
2017-11-10T04:07:19.909Z,10.10
2017-11-10T04:09:47.461Z,10.10
2017-11-10T04:12:15.021Z,10.10
2017-11-10T04:14:42.483Z,10.10
2017-11-10T04:17:10.824Z,10.10
2017-11-10T04:19:38.307Z,10.10
2017-11-10T04:22:05.778Z,10.20
2017-11-10T04:24:34.042Z,10.30
2017-11-10T04:27:02.316Z,10.30
2017-11-10T04:29:29.780Z,10.30
2017-11-10T04:31:57.257Z,10.30
2017-11-10T04:34:25.489Z,10.30
2017-11-10T04:36:52.968Z,10.30
2017-11-10T04:39:20.433Z,10.40
2017-11-10T04:41:48.688Z,10.40
2017-11-10T04:44:16.251Z,10.40
2017-11-10T04:46:43.708Z,10.40
2017-11-10T04:49:11.264Z,10.40
2017-11-10T04:51:38.740Z,10.40
2017-11-10T04:54:06.981Z,10.40
2017-11-10T04:56:34.468Z,10.40
2017-11-10T04:59:02.741Z,10.40
2017-11-10T05:01:30.199Z,10.40
2017-11-10T05:03:59.496Z,10.50
2017-11-10T05:06:26.963Z,10.50
2017-11-10T05:08:55.200Z,10.50
2017-11-10T05:11:22.776Z,10.50
2017-11-10T05:13:50.240Z,10.40
2017-11-10T05:16:18.512Z,10.40
2017-11-10T05:18:47.553Z,10.50
2017-11-10T05:21:15.020Z,10.50
2017-11-10T05:23:43.376Z,10.40
2017-11-10T05:26:10.891Z,10.40
2017-11-10T05:28:38.376Z,10.40
2017-11-10T05:31:06.610Z,10.40
2017-11-10T05:33:34.109Z,10.40
2017-11-10T05:36:02.345Z,10.40
2017-11-10T05:38:29.824Z,10.40
2017-11-10T05:40:57.285Z,10.40
2017-11-10T05:43:25.535Z,10.40
2017-11-10T05:45:53.612Z,10.50
2017-11-10T05:48:21.080Z,10.40
2017-11-10T05:50:48.544Z,10.40
2017-11-10T05:53:17.775Z,10.40
2017-11-10T05:55:45.256Z,10.40
2017-11-10T05:58:12.720Z,10.50
2017-11-10T06:00:40.796Z,10.40
2017-11-10T06:03:08.376Z,10.40
2017-11-10T06:05:35.932Z,10.50
2017-11-10T06:08:03.500Z,10.40
2017-11-10T06:10:30.973Z,10.40
2017-11-10T06:12:59.213Z,10.40
2017-11-10T06:15:26.684Z,10.40
2017-11-10T06:17:54.251Z,10.40
2017-11-10T06:20:22.480Z,10.40
2017-11-10T06:22:49.950Z,10.40
2017-11-10T06:25:18.248Z,10.40
2017-11-10T06:27:47.249Z,10.30
2017-11-10T06:30:14.813Z,10.30
2017-11-10T06:32:43.060Z,10.40
2017-11-10T06:35:10.573Z,10.30
2017-11-10T06:37:38.912Z,10.40
2017-11-10T06:40:06.472Z,10.40
2017-11-10T06:42:34.715Z,10.30
2017-11-10T06:45:02.203Z,10.30
2017-11-10T06:47:29.780Z,10.40
2017-11-10T06:49:58.020Z,10.40
2017-11-10T06:52:25.604Z,10.40
2017-11-10T06:54:53.161Z,10.30
2017-11-10T06:57:20.712Z,10.30
2017-11-10T06:59:48.201Z,10.30
2017-11-10T07:02:16.711Z,10.30
2017-11-10T07:04:44.263Z,10.30
2017-11-10T07:07:11.769Z,10.40
2017-11-10T07:09:39.236Z,10.40
2017-11-10T07:12:07.505Z,10.40
2017-11-10T07:14:35.058Z,10.30
2017-11-10T07:17:03.142Z,10.30
2017-11-10T07:19:31.389Z,10.30
2017-11-10T07:21:58.856Z,10.20
2017-11-10T07:24:26.320Z,10.30
2017-11-10T07:26:53.933Z,10.30
2017-11-10T07:29:21.445Z,10.30
2017-11-10T07:31:48.912Z,10.30
2017-11-10T07:34:17.279Z,10.40
2017-11-10T07:36:45.533Z,10.40
2017-11-10T07:39:13.716Z,10.40
2017-11-10T07:41:41.190Z,10.50
2017-11-10T07:44:10.426Z,10.60
2017-11-10T07:46:37.899Z,10.60
2017-11-10T07:49:05.396Z,10.70
2017-11-10T07:51:32.877Z,10.70
2017-11-10T07:54:00.351Z,10.80
2017-11-10T07:56:27.878Z,10.80
2017-11-10T07:58:56.176Z,10.90
2017-11-10T08:01:23.641Z,10.90
2017-11-10T08:03:51.143Z,10.90
2017-11-10T08:06:18.637Z,10.90
2017-11-10T08:08:46.871Z,11.00
2017-11-10T08:11:14.345Z,10.90
2017-11-10T08:13:42.612Z,11.00
2017-11-10T08:16:10.077Z,11.00
2017-11-10T08:18:37.549Z,11.00
2017-11-10T08:21:05.793Z,11.10
2017-11-10T08:23:33.256Z,11.00
2017-11-10T08:26:00.849Z,11.10
2017-11-10T08:28:29.091Z,11.10
2017-11-10T08:30:57.140Z,11.10
2017-11-10T08:33:24.609Z,11.10
2017-11-10T08:35:52.085Z,11.10
2017-11-10T08:38:19.545Z,11.10
2017-11-10T08:40:47.017Z,11.20
2017-11-10T08:43:15.260Z,11.10
2017-11-10T08:45:42.721Z,11.10
2017-11-10T08:48:10.189Z,10.90
2017-11-10T08:50:37.665Z,10.80
2017-11-10T08:53:05.897Z,10.80
2017-11-10T08:55:33.360Z,10.80
2017-11-10T08:58:00.845Z,10.70
2017-11-10T09:00:29.073Z,10.70
2017-11-10T09:02:56.581Z,10.70
2017-11-10T09:05:24.829Z,10.60
2017-11-10T09:07:52.295Z,10.50
2017-11-10T09:10:19.786Z,10.50
2017-11-10T09:12:47.255Z,10.40
2017-11-10T09:15:14.760Z,10.40
2017-11-10T09:17:42.243Z,10.30
2017-11-10T09:20:10.484Z,10.20
2017-11-10T09:22:38.053Z,10.20
2017-11-10T09:25:05.521Z,10.20
2017-11-10T09:27:33.758Z,10.30
2017-11-10T09:30:11.952Z,10.20
2017-11-10T09:32:45.053Z,10.30
2017-11-10T09:35:25.336Z,10.20
2017-11-10T09:37:57.805Z,10.20
2017-11-10T09:40:34.484Z,10.20
2017-11-10T09:43:06.753Z,10.20
2017-11-10T09:45:39.952Z,10.20
2017-11-10T09:48:22.308Z,10.20
2017-11-10T09:50:55.570Z,10.20
2017-11-10T09:53:23.804Z,10.20
2017-11-10T09:56:08.997Z,10.20
2017-11-10T09:58:51.361Z,10.20
2017-11-10T10:01:39.760Z,10.20
2017-11-10T10:04:27.788Z,10.20
2017-11-10T10:07:13.960Z,10.20
2017-11-10T10:09:57.248Z,10.20
2017-11-10T10:12:30.313Z,10.30
2017-11-10T10:15:13.430Z,10.30
2017-11-10T10:18:01.393Z,10.40
2017-11-10T10:20:45.564Z,10.40
2017-11-10T10:23:13.063Z,10.50
2017-11-10T10:25:40.548Z,10.60
2017-11-10T10:28:08.039Z,10.70
2017-11-10T10:30:35.516Z,10.80
2017-11-10T10:33:02.996Z,11.10
2017-11-10T10:35:30.460Z,11.40
2017-11-10T10:37:58.689Z,12.00
2017-11-10T10:40:26.162Z,12.00
2017-11-10T10:42:53.636Z,12.30
2017-11-10T10:45:21.106Z,12.40
2017-11-10T10:47:49.340Z,12.30
2017-11-10T10:50:17.224Z,12.30
2017-11-10T10:52:44.692Z,12.50
2017-11-10T10:55:12.313Z,12.80
2017-11-10T10:57:39.808Z,12.80
2017-11-10T11:00:07.378Z,12.80
2017-11-10T11:02:34.851Z,12.80
2017-11-10T11:05:02.322Z,13.20
2017-11-10T11:07:29.791Z,13.20
2017-11-10T11:09:57.261Z,13.20
2017-11-10T11:12:24.732Z,13.40
2017-11-10T11:14:52.217Z,13.60
2017-11-10T11:17:19.710Z,13.50
2017-11-10T11:19:47.180Z,13.10
2017-11-10T11:22:15.409Z,12.80
2017-11-10T11:24:43.650Z,12.50
2017-11-10T11:27:11.137Z,12.50
2017-11-10T11:29:39.396Z,12.80
2017-11-10T11:32:06.867Z,12.80
2017-11-10T11:34:34.436Z,12.70
2017-11-10T11:37:02.700Z,12.30
2017-11-10T11:39:30.248Z,12.30
2017-11-10T11:41:57.705Z,11.80
2017-11-10T11:44:25.185Z,11.50
2017-11-10T11:46:53.433Z,10.90
2017-11-10T11:49:20.934Z,10.90
2017-11-10T11:51:48.433Z,10.90
2017-11-10T11:54:15.888Z,10.90
2017-11-10T11:56:43.469Z,10.90
2017-11-10T11:59:11.036Z,11.00
2017-11-10T12:01:39.280Z,11.30
2017-11-10T12:04:06.761Z,11.30
2017-11-10T12:06:34.233Z,11.60
2017-11-10T12:09:02.464Z,11.80
2017-11-10T12:11:29.945Z,11.80
2017-11-10T12:13:57.808Z,11.90
2017-11-10T12:16:25.273Z,12.00
2017-11-10T12:18:52.744Z,12.10
2017-11-10T12:21:20.977Z,12.00
2017-11-10T12:23:48.447Z,12.00
2017-11-10T12:26:15.925Z,12.10
2017-11-10T12:28:43.380Z,12.10
2017-11-10T12:31:10.862Z,12.30
2017-11-10T12:33:38.712Z,12.40
2017-11-10T12:36:06.264Z,12.40
2017-11-10T12:38:33.725Z,12.40
2017-11-10T12:41:01.196Z,12.40
2017-11-10T12:43:29.435Z,12.10
2017-11-10T12:45:57.821Z,12.10
2017-11-10T12:48:25.310Z,12.10
2017-11-10T12:50:53.559Z,11.90
2017-11-10T12:53:21.110Z,11.90
2017-11-10T12:55:48.586Z,12.00
2017-11-10T12:58:16.829Z,12.00
2017-11-10T13:00:44.840Z,12.00
2017-11-10T13:03:13.349Z,12.00
2017-11-10T13:05:40.821Z,12.00
2017-11-10T13:08:08.297Z,12.20
2017-11-10T13:10:35.765Z,12.30
2017-11-10T13:13:03.231Z,12.10
2017-11-10T13:15:31.460Z,11.70
2017-11-10T13:17:58.953Z,11.70
2017-11-10T13:20:26.417Z,11.30
2017-11-10T13:22:55.407Z,10.90
2017-11-10T13:25:23.693Z,10.90
2017-11-10T13:27:51.921Z,11.10
2017-11-10T13:30:19.396Z,11.00
2017-11-10T13:32:46.897Z,11.10
2017-11-10T13:35:15.144Z,11.20
2017-11-10T13:37:43.371Z,11.20
2017-11-10T13:40:10.839Z,11.20
2017-11-10T13:42:39.081Z,11.20
2017-11-10T13:45:06.545Z,11.20
2017-11-10T13:47:34.074Z,11.30
2017-11-10T13:50:01.557Z,11.30
2017-11-10T13:52:29.795Z,11.20
2017-11-10T13:54:57.320Z,11.20
2017-11-10T13:57:24.836Z,11.10
2017-11-10T13:59:53.143Z,10.90
2017-11-10T14:02:20.653Z,10.90
2017-11-10T14:04:48.125Z,10.90
2017-11-10T14:07:16.352Z,11.00
2017-11-10T14:09:43.820Z,10.90
2017-11-10T14:12:11.293Z,11.00
2017-11-10T14:14:38.768Z,11.00
2017-11-10T14:17:07.016Z,11.10
2017-11-10T14:19:34.616Z,11.00
2017-11-10T14:22:02.096Z,11.00
2017-11-10T14:24:29.579Z,11.00
2017-11-10T14:26:57.577Z,10.90
2017-11-10T14:29:25.124Z,10.90
2017-11-10T14:31:52.584Z,10.90
2017-11-10T14:34:20.049Z,10.90
2017-11-10T14:36:47.536Z,10.90
2017-11-10T14:39:15.024Z,10.90
2017-11-10T14:41:42.510Z,10.80
2017-11-10T14:44:09.996Z,10.70
2017-11-10T14:46:38.233Z,10.50
2017-11-10T14:49:05.909Z,10.50
2017-11-10T14:51:33.373Z,10.40
2017-11-10T14:54:00.916Z,10.40
2017-11-10T14:56:28.393Z,10.50
2017-11-10T14:58:56.636Z,10.50
2017-11-10T15:01:24.109Z,10.40
2017-11-10T15:03:52.351Z,10.30
2017-11-10T15:06:19.817Z,10.20
2017-11-10T15:08:47.272Z,10.20
2017-11-10T15:11:14.754Z,10.10
2017-11-10T15:13:42.217Z,10.10
2017-11-10T15:16:09.684Z,10.10
2017-11-10T15:18:37.961Z,10.00
2017-11-10T15:21:06.196Z,9.90
2017-11-10T15:23:33.673Z,9.90
2017-11-10T15:26:01.145Z,9.90
2017-11-10T15:28:29.380Z,9.70
2017-11-10T15:30:56.863Z,9.70
2017-11-10T15:33:24.315Z,9.60
2017-11-10T15:35:53.295Z,9.60
2017-11-10T15:38:20.773Z,9.60
2017-11-10T15:40:48.332Z,9.60
2017-11-10T15:43:16.615Z,9.40
2017-11-10T15:45:44.141Z,9.40
2017-11-10T15:48:12.612Z,9.30
2017-11-10T15:50:40.107Z,9.30
2017-11-10T15:53:07.580Z,9.30
2017-11-10T15:55:35.878Z,9.20
2017-11-10T15:58:04.108Z,9.20
2017-11-10T16:00:31.581Z,9.20
2017-11-10T16:02:59.805Z,9.20
2017-11-10T16:05:27.292Z,9.10
2017-11-10T16:07:54.764Z,9.20
2017-11-10T16:10:22.996Z,9.10
2017-11-10T16:12:50.448Z,9.00
2017-11-10T16:15:17.924Z,9.10
2017-11-10T16:17:45.390Z,9.10
2017-11-10T16:20:12.853Z,9.10
2017-11-10T16:22:40.414Z,9.10
2017-11-10T16:25:08.664Z,9.00
2017-11-10T16:27:36.366Z,9.00
2017-11-10T16:30:04.599Z,9.00
2017-11-10T16:32:32.065Z,9.00
2017-11-10T16:34:59.553Z,9.20
2017-11-10T16:37:27.096Z,9.20
2017-11-10T16:39:54.557Z,9.10
2017-11-10T16:42:22.016Z,8.90
2017-11-10T16:44:49.474Z,8.70
2017-11-10T16:47:17.764Z,8.60
2017-11-10T16:49:46.016Z,8.50
2017-11-10T16:52:13.589Z,8.50
2017-11-10T16:54:41.821Z,8.50
2017-11-10T16:57:09.312Z,8.50
2017-11-10T16:59:37.001Z,8.50
2017-11-10T17:02:05.231Z,8.50
2017-11-10T17:04:32.711Z,8.50
2017-11-10T17:07:00.256Z,8.50
2017-11-10T17:09:27.716Z,8.50
2017-11-10T17:11:55.406Z,8.50
2017-11-10T17:14:23.652Z,8.50
2017-11-10T17:16:51.112Z,8.50
2017-11-10T17:19:18.576Z,8.50
2017-11-10T17:21:46.937Z,8.50
2017-11-10T17:24:14.392Z,8.50
2017-11-10T17:26:41.849Z,8.40
2017-11-10T17:29:09.312Z,8.40
2017-11-10T17:31:37.791Z,8.50
2017-11-10T17:34:05.272Z,8.50
2017-11-10T17:36:33.501Z,8.60
2017-11-10T17:39:00.966Z,8.60
2017-11-10T17:41:28.608Z,8.60
2017-11-10T17:43:56.114Z,8.60
2017-11-10T17:46:24.356Z,8.70
2017-11-10T17:48:51.834Z,8.70
2017-11-10T17:51:19.392Z,8.70
2017-11-10T17:53:46.868Z,8.60
2017-11-10T17:56:15.105Z,8.60
2017-11-10T17:58:42.568Z,8.60
2017-11-10T18:01:10.044Z,8.60
2017-11-10T18:03:39.040Z,8.60
2017-11-10T18:06:06.490Z,8.70
2017-11-10T18:08:33.964Z,8.70
2017-11-10T18:11:02.224Z,8.90
2017-11-10T18:13:29.699Z,8.90
2017-11-10T18:15:57.929Z,9.00
2017-11-10T18:18:25.407Z,9.00
2017-11-10T18:20:53.078Z,9.00
2017-11-10T18:23:20.552Z,8.90
2017-11-10T18:25:48.784Z,9.00
2017-11-10T18:28:16.280Z,8.90
2017-11-10T18:30:44.500Z,8.90
2017-11-10T18:33:11.988Z,8.90
2017-11-10T18:35:39.468Z,8.80
2017-11-10T18:38:07.700Z,8.80
2017-11-10T18:40:35.173Z,8.80
2017-11-10T18:43:02.756Z,8.80
2017-11-10T18:45:31.021Z,8.90
2017-11-10T18:47:58.509Z,8.90
2017-11-10T18:50:26.032Z,8.90
2017-11-10T18:52:53.484Z,8.80
2017-11-10T18:55:20.956Z,8.70
2017-11-10T18:57:49.186Z,8.50
2017-11-10T19:00:16.668Z,8.50
2017-11-10T19:02:44.747Z,8.50
2017-11-10T19:05:12.204Z,8.40
2017-11-10T19:07:39.756Z,8.30
2017-11-10T19:10:07.237Z,8.20
2017-11-10T19:12:35.688Z,8.20
2017-11-10T19:15:03.156Z,8.20
2017-11-10T19:17:30.620Z,8.10
2017-11-10T19:19:58.080Z,8.20
2017-11-10T19:22:26.305Z,8.40
2017-11-10T19:24:53.774Z,8.40
2017-11-10T19:27:21.252Z,8.50
2017-11-10T19:29:48.727Z,8.50
2017-11-10T19:32:16.984Z,8.60
2017-11-10T19:34:44.452Z,8.60
2017-11-10T19:37:12.005Z,8.60
2017-11-10T19:39:39.493Z,8.50
2017-11-10T19:42:06.959Z,8.40
2017-11-10T19:44:34.478Z,8.30
2017-11-10T19:47:01.945Z,8.20
2017-11-10T19:49:30.208Z,8.10
2017-11-10T19:51:57.672Z,8.10
2017-11-10T19:54:25.147Z,8.00
2017-11-10T19:56:53.404Z,8.00
2017-11-10T19:59:21.680Z,8.00
2017-11-10T20:01:49.924Z,8.00
2017-11-10T20:04:18.133Z,8.00
2017-11-10T20:06:46.302Z,8.00
2017-11-10T20:09:13.765Z,8.10
2017-11-10T20:11:42.035Z,8.10
2017-11-10T20:14:11.000Z,8.10
2017-11-10T20:16:38.493Z,8.10
2017-11-10T20:19:06.086Z,8.10
2017-11-10T20:21:33.589Z,8.10
2017-11-10T20:24:01.053Z,8.00
2017-11-10T20:26:28.604Z,8.10
2017-11-10T20:28:56.068Z,8.00
2017-11-10T20:31:24.309Z,8.00
2017-11-10T20:33:51.773Z,8.00
2017-11-10T20:36:19.243Z,8.00
2017-11-10T20:38:46.705Z,8.00
2017-11-10T20:41:14.176Z,8.00
2017-11-10T20:43:42.495Z,8.10
2017-11-10T20:46:10.621Z,8.10
2017-11-10T20:48:38.104Z,8.10
2017-11-10T20:51:05.569Z,8.10
2017-11-10T20:53:33.076Z,8.10
2017-11-10T20:56:00.653Z,8.20
2017-11-10T20:58:28.112Z,8.20
2017-11-10T21:00:56.356Z,8.30
2017-11-10T21:03:23.809Z,8.30
2017-11-10T21:05:51.271Z,8.30
2017-11-10T21:08:18.745Z,8.30
2017-11-10T21:10:46.305Z,8.30
2017-11-10T21:13:13.769Z,8.30
2017-11-10T21:15:42.063Z,8.30
2017-11-10T21:18:09.584Z,8.30
2017-11-10T21:20:37.227Z,8.40
2017-11-10T21:23:04.709Z,8.40
2017-11-10T21:25:32.177Z,8.40
2017-11-10T21:27:59.649Z,8.40
2017-11-10T21:30:27.884Z,8.40
2017-11-10T21:32:55.345Z,8.40
2017-11-10T21:35:22.808Z,8.40
2017-11-10T21:37:50.280Z,8.40
2017-11-10T21:40:18.510Z,8.40
2017-11-10T21:42:45.976Z,8.30
2017-11-10T21:45:13.465Z,8.30
2017-11-10T21:47:41.044Z,8.30
2017-11-10T21:50:09.280Z,8.20
2017-11-10T21:52:36.799Z,8.20
2017-11-10T21:55:04.313Z,8.20
2017-11-10T21:57:32.542Z,8.20
2017-11-10T22:00:00.020Z,8.10
2017-11-10T22:02:27.478Z,8.10
2017-11-10T22:04:54.937Z,8.20
2017-11-10T22:07:22.403Z,8.10
2017-11-10T22:09:49.864Z,8.10
2017-11-10T22:12:17.330Z,8.00
2017-11-10T22:14:44.897Z,8.10
2017-11-10T22:17:13.138Z,8.00
2017-11-10T22:19:40.607Z,8.00
2017-11-10T22:22:08.097Z,8.00
2017-11-10T22:24:36.325Z,8.00
2017-11-10T22:27:03.801Z,8.00
2017-11-10T22:29:31.772Z,8.10
2017-11-10T22:31:59.240Z,8.10
2017-11-10T22:34:26.721Z,8.10
2017-11-10T22:36:54.236Z,8.10
2017-11-10T22:39:21.707Z,8.10
2017-11-10T22:41:49.168Z,8.10
2017-11-10T22:44:18.398Z,8.10
2017-11-10T22:46:45.853Z,8.10
2017-11-10T22:49:13.330Z,8.10
2017-11-10T22:51:40.786Z,8.00
2017-11-10T22:54:08.243Z,8.10
2017-11-10T22:56:35.708Z,8.00
2017-11-10T22:59:03.173Z,7.90
2017-11-10T23:01:30.769Z,7.90
2017-11-10T23:03:59.024Z,7.90
2017-11-10T23:06:26.540Z,7.90
2017-11-10T23:08:54.016Z,7.80
2017-11-10T23:11:21.489Z,7.80
2017-11-10T23:13:48.953Z,7.90
2017-11-10T23:16:18.768Z,7.90
2017-11-10T23:18:46.230Z,7.90
2017-11-10T23:21:13.678Z,7.90
2017-11-10T23:23:41.191Z,8.00
2017-11-10T23:26:09.380Z,8.10
2017-11-10T23:28:36.877Z,8.00
2017-11-10T23:31:04.349Z,8.00
2017-11-10T23:33:31.827Z,8.10
2017-11-10T23:35:59.280Z,8.20
2017-11-10T23:38:26.752Z,8.20
2017-11-10T23:40:54.251Z,8.20
2017-11-10T23:43:21.764Z,8.30
2017-11-10T23:45:49.229Z,8.20
2017-11-10T23:48:16.687Z,8.20
2017-11-10T23:50:44.200Z,8.10
2017-11-10T23:53:12.428Z,8.00
2017-11-10T23:55:39.901Z,8.00
2017-11-10T23:58:07.705Z,8.00
